Last 24 Hours

Coyote Canyon

10 Minute Data | America/Los_Angeles
as of 9/5/26 8:30 PM PDT
Date & Time Temp (°F) Dew Pt (°F) RH (%) Wind Spd (mph) Wind Dir (°) Wind Gust (mph) Wind Gst Dir (°) Daily Max Temp (°F) Daily Min Temp (°F)
9/5/26 - 2030 70.9 52.6 52 11.5 WNW | 290 16.2 WNW | 283 83.1 63.4
9/5/26 - 2020 71.2 52.4 51 11.2 WNW | 292 15.1 WNW | 287 83.1 63.4
9/5/26 - 2010 71.8 52.5 51 11.8 WNW | 286 17.2 WNW | 288 83.1 63.4
9/5/26 - 2000 72.3 52.7 50 13.8 W | 280 19.9 W | 274 83.1 63.4
9/5/26 - 1950 72.6 52.8 50 14.2 W | 281 20.2 W | 269 83.1 63.4
9/5/26 - 1940 73.1 52.8 49 13.6 WNW | 288 18.3 WNW | 292 83.1 63.4
9/5/26 - 1930 73.6 52.9 48 14.6 WNW | 290 20.5 WNW | 294 83.1 63.4
9/5/26 - 1920 74.1 52.9 47 13.8 WNW | 288 18.9 NW | 307 83.1 63.4
9/5/26 - 1910 74.7 53.0 47 14.7 WNW | 296 20.2 WNW | 291 83.1 63.4
9/5/26 - 1900 75.2 53.0 46 13.3 NW | 304 19.6 NW | 304 83.1 63.4
9/5/26 - 1850 75.4 53.1 46 15.0 WNW | 287 23.8 WNW | 292 83.1 63.4
9/5/26 - 1840 76.1 53.2 45 16.9 WNW | 294 25.4 WNW | 294 83.1 63.4
9/5/26 - 1830 76.9 53.2 44 16.3 WNW | 291 22.9 WNW | 295 83.1 63.4
9/5/26 - 1820 77.2 53.2 43 15.5 WNW | 284 21.4 W | 267 83.1 63.4
9/5/26 - 1810 77.7 52.9 42 16.4 WNW | 282 23.1 W | 279 83.1 63.4
9/5/26 - 1800 78.2 53.0 41 15.5 W | 280 22.9 W | 274 83.1 63.4
9/5/26 - 1750 78.3 52.7 41 17.9 WNW | 286 26.4 WNW | 294 83.1 63.4
9/5/26 - 1740 78.2 52.5 41 19.1 WNW | 291 27.2 WNW | 289 83.1 63.4
9/5/26 - 1730 78.2 52.5 41 18.0 WNW | 297 28.3 WNW | 293 83.1 63.4
9/5/26 - 1720 79.0 52.5 40 17.4 WNW | 295 24.0 W | 275 83.1 63.4
9/5/26 - 1710 79.0 52.2 39 13.9 WNW | 289 22.0 WNW | 289 83.1 63.4
9/5/26 - 1700 79.2 52.2 39 15.7 WNW | 293 25.9 WNW | 301 83.1 63.4
9/5/26 - 1650 79.3 52.1 39 13.9 W | 273 24.2 W | 270 83.1 63.4
9/5/26 - 1640 79.7 51.8 38 16.1 WNW | 298 23.3 WNW | 294 83.1 63.4
9/5/26 - 1630 79.8 51.0 37 16.1 WNW | 295 26.1 WNW | 286 83.1 63.4
9/5/26 - 1620 80.4 51.5 37 16.3 WNW | 283 27.5 WNW | 294 83.1 63.4
9/5/26 - 1610 81.0 51.6 36 15.0 W | 278 25.0 W | 276 83.1 63.4
9/5/26 - 1600 80.8 52.0 37 13.9 W | 276 22.9 NW | 305 83.1 63.4
9/5/26 - 1550 81.5 51.7 36 15.5 W | 278 28.3 WNW | 289 83.1 63.4
9/5/26 - 1540 80.6 51.4 36 19.0 WNW | 291 27.6 WNW | 289 83.1 63.4
9/5/26 - 1530 82.1 52.5 36 10.9 WSW | 251 21.9 W | 261 83.1 63.4
9/5/26 - 1520 80.9 52.4 37 15.2 WSW | 254 24.4 WSW | 241 82.7 63.4
9/5/26 - 1510 80.2 51.2 36 14.4 W | 274 22.7 WSW | 251 82.7 63.4
9/5/26 - 1500 80.5 51.2 36 13.1 W | 264 22.2 W | 264 82.7 63.4
9/5/26 - 1450 81.3 51.2 35 15.9 W | 276 24.9 W | 279 82.7 63.4
9/5/26 - 1440 80.5 50.5 35 12.5 WSW | 252 24.1 WSW | 246 82.7 63.4
9/5/26 - 1430 81.1 50.4 34 10.8 W | 259 19.6 W | 264 82.7 63.4
9/5/26 - 1420 80.9 51.2 36 10.4 SW | 218 21.1 SSW | 204 82.7 63.4
9/5/26 - 1410 80.4 51.3 36 10.7 SW | 224 19.9 SSW | 202 82.3 63.4
9/5/26 - 1400 80.0 51.9 38 15.0 SW | 220 24.0 SW | 231 82.3 63.4
9/5/26 - 1350 80.1 50.5 36 11.5 SW | 221 22.9 SSW | 204 82.3 63.4
9/5/26 - 1340 80.2 49.9 35 13.7 SSW | 204 25.8 SSW | 211 82.3 63.4
9/5/26 - 1330 80.4 48.4 33 12.5 SW | 225 22.7 WSW | 242 82.3 63.4
9/5/26 - 1320 81.0 48.0 32 11.6 WSW | 245 23.5 SSW | 211 82.3 63.4
9/5/26 - 1310 80.2 46.8 31 6.8 WSW | 250 16.3 WNW | 292 82.3 63.4
9/5/26 - 1300 80.0 44.2 28 13.1 WNW | 286 20.4 WNW | 287 82.3 63.4
9/5/26 - 1250 80.7 48.8 33 14.0 SW | 226 22.8 SW | 227 82.3 63.4
9/5/26 - 1240 80.6 49.6 34 14.4 WSW | 243 23.2 SSW | 206 82.3 63.4
9/5/26 - 1230 79.2 47.9 33 13.3 WSW | 248 30.7 SW | 229 80.0 63.4
9/5/26 - 1220 79.1 47.7 33 17.6 WSW | 249 27.0 WSW | 250 79.9 63.4
9/5/26 - 1210 79.3 46.5 32 15.0 WSW | 249 22.2 W | 261 79.9 63.4
9/5/26 - 1200 78.5 45.4 31 13.7 WSW | 246 23.7 WSW | 249 79.0 63.4
9/5/26 - 1150 77.8 45.8 32 16.2 SW | 228 25.1 SW | 221 79.0 63.4
9/5/26 - 1140 78.3 46.2 32 14.8 WSW | 241 21.8 WSW | 239 79.0 63.4
9/5/26 - 1130 78.1 45.2 31 13.5 SW | 234 23.9 WSW | 253 78.7 63.4
9/5/26 - 1120 78.3 44.9 31 14.6 WSW | 238 24.0 SW | 233 78.7 63.4
9/5/26 - 1110 77.9 40.9 27 7.5 W | 266 18.1 WSW | 253 78.7 63.4
9/5/26 - 1100 77.8 39.7 26 6.0 W | 277 12.6 WNW | 286 78.7 63.4
9/5/26 - 1050 77.5 39.3 25 4.3 SW | 226 12.4 SW | 223 78.7 63.4
9/5/26 - 1040 77.7 36.7 23 4.2 S | 177 10.7 SW | 221 78.7 63.4
9/5/26 - 1030 77.8 33.8 20 3.5 S | 178 8.9 SSW | 208 78.4 63.4
9/5/26 - 1020 76.3 28.7 17 3.0 ESE | 110 7.2 SSE | 147 77.3 63.4
9/5/26 - 1010 75.7 26.8 16 5.7 SSW | 210 9.6 SW | 219 76.6 63.4
9/5/26 - 1000 76.0 25.6 15 3.4 S | 177 11.0 SSW | 202 76.6 63.4
9/5/26 - 0950 74.9 23.1 14 4.2 SSW | 197 9.1 SSW | 210 76.5 63.4
9/5/26 - 0940 75.0 20.1 13 5.5 SSW | 193 10.6 SW | 214 75.5 63.4
9/5/26 - 0930 74.2 18.0 12 5.7 S | 178 11.1 S | 180 74.7 63.4
9/5/26 - 0920 74.2 17.2 11 6.2 SW | 218 13.0 SSW | 205 74.7 63.4
9/5/26 - 0910 73.2 15.7 11 5.2 SSW | 197 8.8 SSW | 193 74.2 63.4
9/5/26 - 0900 72.9 15.8 11 4.1 SSW | 208 8.6 SSW | 209 73.1 63.4
9/5/26 - 0850 71.9 18.0 13 2.1 W | 266 6.1 NW | 312 72.5 63.4
9/5/26 - 0840 70.8 18.7 14 2.5 SW | 236 5.5 W | 268 71.2 63.4
9/5/26 - 0830 69.5 20.5 15 2.3 W | 279 6.0 WSW | 238 70.4 63.4
9/5/26 - 0820 67.9 20.2 16 4.3 NNW | 334 7.9 NNW | 332 68.8 63.4
9/5/26 - 0810 66.5 19.3 16 3.9 N | 4 5.6 N | 6 67.2 63.4
9/5/26 - 0800 65.5 20.3 18 3.0 NNE | 19 5.8 N | 10 66.6 63.4
9/5/26 - 0750 65.6 18.4 16 0.0 N | 0 0.0 NW | 319 66.6 63.4
9/5/26 - 0740 65.7 17.8 16 0.0 N | 0 0.0 SSW | 201 66.6 63.4
9/5/26 - 0730 65.3 18.2 16 0.0 N | 0 0.0 SSE | 154 66.6 63.4
9/5/26 - 0720 65.1 21.4 19 0.5 NNE | 25 2.2 NNE | 20 66.6 63.4
9/5/26 - 0710 64.3 22.8 20 2.5 NNE | 16 4.8 N | 3 66.6 63.4
9/5/26 - 0700 64.9 22.3 20 3.6 NNE | 22 6.1 NE | 42 66.6 63.4
9/5/26 - 0650 64.2 23.0 21 4.6 NNE | 28 7.1 NNE | 19 66.6 63.4
9/5/26 - 0640 64.5 23.6 21 3.7 NNW | 339 5.9 NW | 315 66.6 63.5
9/5/26 - 0630 64.9 22.6 20 5.6 WNW | 285 9.0 W | 262 66.6 63.6
9/5/26 - 0620 64.0 22.9 21 4.3 WNW | 283 8.4 W | 269 66.6 63.6
9/5/26 - 0610 64.2 23.4 21 4.5 WNW | 287 7.6 WNW | 286 66.6 63.6
9/5/26 - 0600 64.8 23.5 21 7.7 WSW | 254 11.0 WSW | 241 66.6 63.6
9/5/26 - 0550 64.6 23.3 21 7.1 WSW | 245 11.2 SW | 216 66.6 63.6
9/5/26 - 0540 64.7 23.1 20 8.6 SW | 223 12.0 SW | 236 66.6 63.6
9/5/26 - 0530 64.4 23.3 21 5.6 WSW | 242 11.2 SW | 218 66.6 63.6
9/5/26 - 0520 64.2 23.4 21 5.0 WSW | 256 8.6 W | 267 66.6 63.6
9/5/26 - 0510 64.5 23.3 21 5.2 W | 262 9.4 SSW | 207 66.6 63.6
9/5/26 - 0500 65.0 22.6 20 6.4 WSW | 251 11.2 WSW | 238 66.6 63.6
9/5/26 - 0450 65.4 22.7 19 6.3 WSW | 258 13.0 WSW | 256 66.6 63.6
9/5/26 - 0440 65.1 23.3 20 6.5 WSW | 251 13.1 SW | 227 66.6 63.6
9/5/26 - 0430 63.9 25.3 23 3.3 WNW | 289 6.9 W | 273 66.6 63.6
9/5/26 - 0420 64.1 27.2 25 3.8 NW | 316 5.0 NNW | 336 66.6 63.9
9/5/26 - 0410 64.8 28.3 25 3.1 NNW | 332 5.3 NW | 314 66.6 64.0
9/5/26 - 0400 64.9 29.1 26 3.5 NW | 309 5.7 NW | 306 66.6 64.0
9/5/26 - 0350 64.8 29.2 26 4.4 NW | 306 6.3 NW | 308 66.6 64.0
9/5/26 - 0340 64.8 29.7 27 5.7 WNW | 294 7.2 WNW | 285 66.6 64.0
9/5/26 - 0330 64.9 30.0 27 6.3 WNW | 292 8.1 WNW | 284 66.6 64.0
9/5/26 - 0320 65.3 30.2 27 6.8 WNW | 283 8.6 WNW | 284 66.6 64.0
9/5/26 - 0310 65.2 31.4 28 6.9 WNW | 292 9.5 WNW | 292 66.6 64.0
9/5/26 - 0300 64.8 32.0 29 6.3 NW | 306 8.4 NW | 306 66.6 64.0
9/5/26 - 0250 64.4 32.3 30 7.4 NW | 311 9.3 WNW | 303 66.6 64.0
9/5/26 - 0240 64.7 32.3 30 7.6 NW | 313 9.6 NW | 307 66.6 64.1
9/5/26 - 0230 66.0 32.2 28 6.1 NW | 310 8.8 NW | 315 66.6 65.0
9/5/26 - 0220 66.3 32.3 28 5.9 NW | 311 7.1 NW | 321 66.5 65.0
9/5/26 - 0210 66.3 32.7 28 5.5 NNW | 335 7.7 NW | 312 66.5 65.0
9/5/26 - 0200 66.0 33.3 30 4.9 NNW | 330 7.7 NW | 318 66.3 65.0
9/5/26 - 0150 66.2 33.6 30 3.8 NW | 326 6.6 NW | 305 66.3 65.0
9/5/26 - 0140 65.6 33.6 30 4.8 NW | 322 8.6 NW | 306 66.2 65.0
9/5/26 - 0130 65.8 33.7 30 5.6 NW | 319 8.3 NNW | 336 66.2 65.0
9/5/26 - 0120 65.8 34.0 31 6.9 NW | 323 11.0 NW | 318 66.2 65.0
9/5/26 - 0110 65.3 34.3 31 6.9 NW | 312 9.4 NNW | 336 65.8 65.0
9/5/26 - 0100 65.4 34.1 31 8.1 NW | 319 10.8 NW | 322 83.2 56.1
9/5/26 - 0050 65.0 34.1 32 8.2 NW | 320 11.0 NW | 324 83.2 56.1
9/5/26 - 0040 65.0 34.7 32 6.8 NW | 309 9.9 NW | 323 83.2 56.1
9/5/26 - 0030 65.6 34.3 31 7.1 W | 277 13.2 W | 272 83.2 56.1
9/5/26 - 0020 65.6 33.6 30 7.4 WSW | 258 14.2 SW | 234 83.2 56.1
9/5/26 - 0010 65.3 34.9 32 4.8 W | 265 14.1 WSW | 247 83.2 56.1
9/5/26 - 0000 66.0 34.5 31 6.4 WSW | 257 10.7 WSW | 243 83.2 56.1
9/4/26 - 2350 66.3 34.2 30 7.2 WSW | 256 11.8 WSW | 247 83.2 56.1
9/4/26 - 2340 65.7 35.3 33 7.2 W | 273 11.9 W | 263 83.2 56.1
9/4/26 - 2330 64.0 40.1 41 6.2 WNW | 292 9.8 WNW | 292 83.2 56.1
9/4/26 - 2320 64.2 39.7 41 6.5 WNW | 288 11.6 W | 270 83.2 56.1
9/4/26 - 2310 63.0 40.8 44 6.7 WNW | 290 9.6 WNW | 289 83.2 56.1
9/4/26 - 2300 62.7 41.6 46 8.2 WNW | 292 9.9 WNW | 300 83.2 56.1
9/4/26 - 2250 62.2 41.6 47 9.8 WNW | 296 11.1 WNW | 296 83.2 56.1
9/4/26 - 2240 63.3 41.6 45 11.2 WNW | 290 12.6 WNW | 288 83.2 56.1
9/4/26 - 2230 63.6 41.8 45 12.0 WNW | 289 13.7 WNW | 291 83.2 56.1
9/4/26 - 2220 64.3 42.1 44 11.6 WNW | 288 12.9 WNW | 286 83.2 56.1
9/4/26 - 2210 65.1 42.2 43 11.8 WNW | 294 13.7 WNW | 295 83.2 56.1
9/4/26 - 2200 65.2 42.2 43 11.4 WNW | 302 13.2 WNW | 299 83.2 56.1
9/4/26 - 2150 65.4 42.3 43 11.4 NW | 308 13.2 NW | 310 83.2 56.1
9/4/26 - 2140 65.6 42.4 43 11.4 NW | 309 13.4 NW | 318 83.2 56.1
9/4/26 - 2130 65.6 42.5 43 11.7 NW | 312 13.6 NW | 308 83.2 56.1
9/4/26 - 2120 65.6 42.5 43 11.0 NW | 310 12.8 NW | 311 83.2 56.1
9/4/26 - 2110 65.3 42.3 43 11.2 NW | 308 13.8 NW | 307 83.2 56.1
9/4/26 - 2100 65.3 42.2 43 9.8 NW | 306 13.3 NW | 313 83.2 56.1
9/4/26 - 2050 65.6 42.3 43 9.0 WNW | 301 11.0 WNW | 294 83.2 56.1
9/4/26 - 2040 66.1 42.3 42 10.0 NW | 309 12.5 NW | 312 83.2 56.1
9/4/26 - 2030 66.1 42.3 42 11.2 NW | 317 13.0 NW | 309 83.2 56.1
Max 82.1 53.2 52 19.1 - 30.7 - 83.2 65.0
Avg 71.3 38.3 32 9.3 - 14.7 - - -
Min 62.2 15.7 11 0.0 - 0.0 - 65.8 56.1